sensor_id;sensor_type;location;lat;lon;timestamp;P1;durP1;ratioP1;P2;durP2;ratioP2
41139;SDS011;26881;48.784;9.192;2022-10-16T00:00:30;4.40;;;1.63;;
41139;SDS011;26881;48.784;9.192;2022-10-16T00:05:52;4.03;;;2.00;;
41139;SDS011;26881;48.784;9.192;2022-10-16T00:11:15;7.72;;;1.65;;
41139;SDS011;26881;48.784;9.192;2022-10-16T00:16:41;2.22;;;1.50;;
41139;SDS011;26881;48.784;9.192;2022-10-16T00:22:03;7.93;;;2.00;;
41139;SDS011;26881;48.784;9.192;2022-10-16T00:27:25;2.85;;;2.30;;
41139;SDS011;26881;48.784;9.192;2022-10-16T00:32:47;5.75;;;3.30;;
41139;SDS011;26881;48.784;9.192;2022-10-16T00:38:09;3.80;;;2.80;;
41139;SDS011;26881;48.784;9.192;2022-10-16T00:43:44;4.55;;;1.92;;
41139;SDS011;26881;48.784;9.192;2022-10-16T00:54:31;2.58;;;1.70;;
41139;SDS011;26881;48.784;9.192;2022-10-16T00:59:54;6.50;;;1.60;;
41139;SDS011;26881;48.784;9.192;2022-10-16T01:05:16;4.90;;;1.75;;
41139;SDS011;26881;48.784;9.192;2022-10-16T01:10:38;2.15;;;1.70;;
41139;SDS011;26881;48.784;9.192;2022-10-16T01:16:12;3.92;;;1.90;;
41139;SDS011;26881;48.784;9.192;2022-10-16T01:21:38;7.55;;;1.60;;
41139;SDS011;26881;48.784;9.192;2022-10-16T01:27:07;6.20;;;1.90;;
41139;SDS011;26881;48.784;9.192;2022-10-16T01:43:27;7.80;;;1.98;;
41139;SDS011;26881;48.784;9.192;2022-10-16T01:48:54;3.28;;;1.88;;
41139;SDS011;26881;48.784;9.192;2022-10-16T01:54:17;5.22;;;1.20;;
41139;SDS011;26881;48.784;9.192;2022-10-16T01:59:46;2.38;;;1.60;;
41139;SDS011;26881;48.784;9.192;2022-10-16T02:05:25;3.97;;;1.60;;
41139;SDS011;26881;48.784;9.192;2022-10-16T02:10:49;3.10;;;1.52;;
41139;SDS011;26881;48.784;9.192;2022-10-16T02:16:12;2.33;;;1.40;;
41139;SDS011;26881;48.784;9.192;2022-10-16T02:21:43;2.55;;;1.55;;
41139;SDS011;26881;48.784;9.192;2022-10-16T02:27:13;6.13;;;2.30;;
41139;SDS011;26881;48.784;9.192;2022-10-16T02:32:59;3.60;;;1.80;;
41139;SDS011;26881;48.784;9.192;2022-10-16T02:38:24;6.38;;;2.05;;
41139;SDS011;26881;48.784;9.192;2022-10-16T02:43:47;4.80;;;1.55;;
41139;SDS011;26881;48.784;9.192;2022-10-16T02:49:09;5.75;;;1.75;;
41139;SDS011;26881;48.784;9.192;2022-10-16T02:54:30;4.95;;;2.03;;
41139;SDS011;26881;48.784;9.192;2022-10-16T02:59:52;4.85;;;1.77;;
41139;SDS011;26881;48.784;9.192;2022-10-16T03:05:14;1.65;;;1.55;;
41139;SDS011;26881;48.784;9.192;2022-10-16T03:10:36;3.92;;;1.80;;
41139;SDS011;26881;48.784;9.192;2022-10-16T03:15:58;8.15;;;1.48;;
41139;SDS011;26881;48.784;9.192;2022-10-16T03:21:20;4.57;;;1.40;;
41139;SDS011;26881;48.784;9.192;2022-10-16T03:26:42;2.20;;;1.40;;
41139;SDS011;26881;48.784;9.192;2022-10-16T03:32:03;2.90;;;1.40;;
41139;SDS011;26881;48.784;9.192;2022-10-16T03:37:25;4.05;;;1.40;;
41139;SDS011;26881;48.784;9.192;2022-10-16T03:42:48;4.57;;;1.63;;
41139;SDS011;26881;48.784;9.192;2022-10-16T03:48:09;2.95;;;1.60;;
41139;SDS011;26881;48.784;9.192;2022-10-16T03:53:31;3.33;;;1.52;;
41139;SDS011;26881;48.784;9.192;2022-10-16T03:58:53;2.92;;;1.50;;
41139;SDS011;26881;48.784;9.192;2022-10-16T04:04:15;4.22;;;1.38;;
41139;SDS011;26881;48.784;9.192;2022-10-16T04:09:37;4.13;;;1.60;;
41139;SDS011;26881;48.784;9.192;2022-10-16T04:14:58;3.75;;;1.60;;
41139;SDS011;26881;48.784;9.192;2022-10-16T04:20:20;5.47;;;1.30;;
41139;SDS011;26881;48.784;9.192;2022-10-16T04:25:42;4.13;;;1.50;;
41139;SDS011;26881;48.784;9.192;2022-10-16T04:31:04;1.58;;;1.42;;
41139;SDS011;26881;48.784;9.192;2022-10-16T04:36:27;3.28;;;1.27;;
41139;SDS011;26881;48.784;9.192;2022-10-16T04:41:49;4.70;;;1.25;;
41139;SDS011;26881;48.784;9.192;2022-10-16T04:47:11;2.08;;;1.30;;
41139;SDS011;26881;48.784;9.192;2022-10-16T04:52:33;3.45;;;1.92;;
41139;SDS011;26881;48.784;9.192;2022-10-16T04:58:00;2.80;;;1.40;;
41139;SDS011;26881;48.784;9.192;2022-10-16T05:03:22;4.45;;;1.58;;
41139;SDS011;26881;48.784;9.192;2022-10-16T05:08:44;4.28;;;1.70;;
41139;SDS011;26881;48.784;9.192;2022-10-16T05:14:05;5.32;;;1.23;;
41139;SDS011;26881;48.784;9.192;2022-10-16T05:19:27;1.77;;;1.23;;
41139;SDS011;26881;48.784;9.192;2022-10-16T05:24:49;3.30;;;1.58;;
41139;SDS011;26881;48.784;9.192;2022-10-16T05:30:11;3.05;;;1.50;;
41139;SDS011;26881;48.784;9.192;2022-10-16T05:35:33;4.97;;;1.83;;
41139;SDS011;26881;48.784;9.192;2022-10-16T05:40:55;2.55;;;1.30;;
41139;SDS011;26881;48.784;9.192;2022-10-16T05:46:17;2.85;;;1.45;;
41139;SDS011;26881;48.784;9.192;2022-10-16T05:51:39;3.47;;;1.70;;
41139;SDS011;26881;48.784;9.192;2022-10-16T05:57:02;6.30;;;1.60;;
41139;SDS011;26881;48.784;9.192;2022-10-16T06:02:26;3.15;;;1.38;;
41139;SDS011;26881;48.784;9.192;2022-10-16T06:07:48;3.58;;;1.48;;
41139;SDS011;26881;48.784;9.192;2022-10-16T06:13:10;7.03;;;2.13;;
41139;SDS011;26881;48.784;9.192;2022-10-16T06:18:33;5.40;;;2.70;;
41139;SDS011;26881;48.784;9.192;2022-10-16T06:23:55;7.32;;;2.30;;
41139;SDS011;26881;48.784;9.192;2022-10-16T06:29:17;3.65;;;2.35;;
41139;SDS011;26881;48.784;9.192;2022-10-16T06:34:39;3.97;;;1.92;;
41139;SDS011;26881;48.784;9.192;2022-10-16T06:40:04;3.97;;;2.30;;
41139;SDS011;26881;48.784;9.192;2022-10-16T06:45:27;4.18;;;2.40;;
41139;SDS011;26881;48.784;9.192;2022-10-16T06:51:23;3.75;;;2.28;;
41139;SDS011;26881;48.784;9.192;2022-10-16T06:56:40;5.20;;;2.90;;
41139;SDS011;26881;48.784;9.192;2022-10-16T07:02:02;7.47;;;2.65;;
41139;SDS011;26881;48.784;9.192;2022-10-16T07:07:24;6.55;;;2.22;;
41139;SDS011;26881;48.784;9.192;2022-10-16T07:12:47;8.73;;;2.30;;
41139;SDS011;26881;48.784;9.192;2022-10-16T07:18:09;4.85;;;2.40;;
41139;SDS011;26881;48.784;9.192;2022-10-16T07:23:31;9.98;;;2.45;;
41139;SDS011;26881;48.784;9.192;2022-10-16T07:28:53;8.63;;;2.92;;
41139;SDS011;26881;48.784;9.192;2022-10-16T07:34:16;10.60;;;3.53;;
41139;SDS011;26881;48.784;9.192;2022-10-16T07:39:39;5.95;;;3.03;;
41139;SDS011;26881;48.784;9.192;2022-10-16T07:45:01;6.78;;;2.60;;
41139;SDS011;26881;48.784;9.192;2022-10-16T07:50:23;7.47;;;2.33;;
41139;SDS011;26881;48.784;9.192;2022-10-16T07:55:44;5.93;;;2.20;;
41139;SDS011;26881;48.784;9.192;2022-10-16T08:01:07;3.90;;;2.38;;
41139;SDS011;26881;48.784;9.192;2022-10-16T08:06:34;7.47;;;2.00;;
41139;SDS011;26881;48.784;9.192;2022-10-16T08:11:58;8.82;;;1.90;;
41139;SDS011;26881;48.784;9.192;2022-10-16T08:17:23;6.63;;;2.50;;
41139;SDS011;26881;48.784;9.192;2022-10-16T08:22:45;4.82;;;2.42;;
41139;SDS011;26881;48.784;9.192;2022-10-16T08:28:07;5.32;;;2.30;;
41139;SDS011;26881;48.784;9.192;2022-10-16T08:33:31;5.63;;;2.00;;
41139;SDS011;26881;48.784;9.192;2022-10-16T08:38:53;3.28;;;1.90;;
41139;SDS011;26881;48.784;9.192;2022-10-16T08:49:59;5.53;;;1.58;;
41139;SDS011;26881;48.784;9.192;2022-10-16T08:55:37;4.13;;;1.38;;
41139;SDS011;26881;48.784;9.192;2022-10-16T09:01:03;2.10;;;1.60;;
41139;SDS011;26881;48.784;9.192;2022-10-16T09:11:58;2.78;;;1.60;;
41139;SDS011;26881;48.784;9.192;2022-10-16T09:28:25;6.75;;;2.65;;
41139;SDS011;26881;48.784;9.192;2022-10-16T09:33:52;5.68;;;2.47;;
41139;SDS011;26881;48.784;9.192;2022-10-16T09:39:16;8.55;;;2.13;;
41139;SDS011;26881;48.784;9.192;2022-10-16T09:44:38;6.10;;;1.90;;
41139;SDS011;26881;48.784;9.192;2022-10-16T09:50:03;3.15;;;2.35;;
41139;SDS011;26881;48.784;9.192;2022-10-16T09:55:47;3.53;;;2.03;;
41139;SDS011;26881;48.784;9.192;2022-10-16T10:01:13;3.33;;;1.80;;
41139;SDS011;26881;48.784;9.192;2022-10-16T10:06:37;3.08;;;1.30;;
41139;SDS011;26881;48.784;9.192;2022-10-16T10:12:05;4.88;;;2.00;;
41139;SDS011;26881;48.784;9.192;2022-10-16T10:17:47;5.80;;;1.90;;
41139;SDS011;26881;48.784;9.192;2022-10-16T10:23:21;6.80;;;1.90;;
41139;SDS011;26881;48.784;9.192;2022-10-16T10:40:47;4.22;;;1.70;;
41139;SDS011;26881;48.784;9.192;2022-10-16T10:46:25;5.65;;;1.90;;
41139;SDS011;26881;48.784;9.192;2022-10-16T10:51:54;3.60;;;1.98;;
41139;SDS011;26881;48.784;9.192;2022-10-16T11:09:23;2.83;;;1.80;;
41139;SDS011;26881;48.784;9.192;2022-10-16T11:20:39;5.82;;;1.90;;
41139;SDS011;26881;48.784;9.192;2022-10-16T11:26:04;3.10;;;1.70;;
41139;SDS011;26881;48.784;9.192;2022-10-16T11:31:40;6.38;;;2.40;;
41139;SDS011;26881;48.784;9.192;2022-10-16T11:42:57;6.25;;;2.58;;
41139;SDS011;26881;48.784;9.192;2022-10-16T11:48:36;9.98;;;1.48;;
41139;SDS011;26881;48.784;9.192;2022-10-16T11:54:21;1.98;;;1.50;;
41139;SDS011;26881;48.784;9.192;2022-10-16T12:00:00;3.33;;;1.40;;
41139;SDS011;26881;48.784;9.192;2022-10-16T12:11:22;1.38;;;1.25;;
41139;SDS011;26881;48.784;9.192;2022-10-16T12:17:01;2.35;;;1.67;;
41139;SDS011;26881;48.784;9.192;2022-10-16T12:22:23;4.63;;;1.45;;
41139;SDS011;26881;48.784;9.192;2022-10-16T12:27:58;6.80;;;1.23;;
41139;SDS011;26881;48.784;9.192;2022-10-16T12:33:23;1.50;;;1.10;;
41139;SDS011;26881;48.784;9.192;2022-10-16T12:38:47;3.33;;;1.20;;
41139;SDS011;26881;48.784;9.192;2022-10-16T12:44:23;1.70;;;1.58;;
41139;SDS011;26881;48.784;9.192;2022-10-16T12:49:50;1.45;;;1.35;;
41139;SDS011;26881;48.784;9.192;2022-10-16T12:55:17;2.13;;;1.35;;
41139;SDS011;26881;48.784;9.192;2022-10-16T13:00:44;2.70;;;1.33;;
41139;SDS011;26881;48.784;9.192;2022-10-16T13:12:17;5.00;;;2.30;;
41139;SDS011;26881;48.784;9.192;2022-10-16T13:17:52;2.22;;;1.45;;
41139;SDS011;26881;48.784;9.192;2022-10-16T13:29:30;3.20;;;1.63;;
41139;SDS011;26881;48.784;9.192;2022-10-16T13:34:53;3.88;;;1.70;;
41139;SDS011;26881;48.784;9.192;2022-10-16T13:40:20;3.50;;;1.83;;
41139;SDS011;26881;48.784;9.192;2022-10-16T13:45:52;1.58;;;1.38;;
41139;SDS011;26881;48.784;9.192;2022-10-16T13:51:15;4.68;;;1.35;;
41139;SDS011;26881;48.784;9.192;2022-10-16T13:56:38;2.67;;;1.90;;
41139;SDS011;26881;48.784;9.192;2022-10-16T14:02:04;4.20;;;2.00;;
41139;SDS011;26881;48.784;9.192;2022-10-16T14:07:36;5.47;;;2.10;;
41139;SDS011;26881;48.784;9.192;2022-10-16T14:13:00;3.22;;;2.22;;
41139;SDS011;26881;48.784;9.192;2022-10-16T14:18:24;7.85;;;2.50;;
41139;SDS011;26881;48.784;9.192;2022-10-16T14:23:56;12.48;;;4.13;;
41139;SDS011;26881;48.784;9.192;2022-10-16T14:29:18;4.68;;;2.55;;
41139;SDS011;26881;48.784;9.192;2022-10-16T14:34:41;3.20;;;1.67;;
41139;SDS011;26881;48.784;9.192;2022-10-16T14:40:03;1.90;;;1.63;;
41139;SDS011;26881;48.784;9.192;2022-10-16T14:45:27;5.85;;;2.00;;
41139;SDS011;26881;48.784;9.192;2022-10-16T14:50:51;3.25;;;1.70;;
41139;SDS011;26881;48.784;9.192;2022-10-16T14:56:19;4.97;;;2.30;;
41139;SDS011;26881;48.784;9.192;2022-10-16T15:01:43;6.35;;;2.72;;
41139;SDS011;26881;48.784;9.192;2022-10-16T15:07:07;4.78;;;2.47;;
41139;SDS011;26881;48.784;9.192;2022-10-16T15:12:29;4.57;;;2.95;;
41139;SDS011;26881;48.784;9.192;2022-10-16T15:17:51;8.23;;;2.72;;
41139;SDS011;26881;48.784;9.192;2022-10-16T15:23:16;6.90;;;2.95;;
41139;SDS011;26881;48.784;9.192;2022-10-16T15:28:39;5.22;;;2.55;;
41139;SDS011;26881;48.784;9.192;2022-10-16T15:34:01;4.07;;;3.22;;
41139;SDS011;26881;48.784;9.192;2022-10-16T15:39:25;9.68;;;2.80;;
41139;SDS011;26881;48.784;9.192;2022-10-16T15:44:47;7.38;;;2.30;;
41139;SDS011;26881;48.784;9.192;2022-10-16T15:50:14;6.85;;;2.22;;
41139;SDS011;26881;48.784;9.192;2022-10-16T15:55:38;7.13;;;2.58;;
41139;SDS011;26881;48.784;9.192;2022-10-16T16:01:01;3.67;;;2.63;;
41139;SDS011;26881;48.784;9.192;2022-10-16T16:06:24;3.63;;;2.70;;
41139;SDS011;26881;48.784;9.192;2022-10-16T16:11:46;7.47;;;2.33;;
41139;SDS011;26881;48.784;9.192;2022-10-16T16:17:08;6.68;;;3.70;;
41139;SDS011;26881;48.784;9.192;2022-10-16T16:22:30;4.45;;;3.00;;
41139;SDS011;26881;48.784;9.192;2022-10-16T16:27:52;5.75;;;2.92;;
41139;SDS011;26881;48.784;9.192;2022-10-16T16:33:14;9.75;;;2.70;;
41139;SDS011;26881;48.784;9.192;2022-10-16T16:38:36;4.03;;;2.35;;
41139;SDS011;26881;48.784;9.192;2022-10-16T16:44:05;4.57;;;2.33;;
41139;SDS011;26881;48.784;9.192;2022-10-16T16:49:28;6.60;;;3.72;;
41139;SDS011;26881;48.784;9.192;2022-10-16T16:54:50;4.80;;;3.83;;
41139;SDS011;26881;48.784;9.192;2022-10-16T17:00:13;14.25;;;4.75;;
41139;SDS011;26881;48.784;9.192;2022-10-16T17:05:35;10.75;;;5.60;;
41139;SDS011;26881;48.784;9.192;2022-10-16T17:10:57;10.95;;;4.90;;
41139;SDS011;26881;48.784;9.192;2022-10-16T17:16:20;9.38;;;5.03;;
41139;SDS011;26881;48.784;9.192;2022-10-16T17:21:42;11.70;;;5.22;;
41139;SDS011;26881;48.784;9.192;2022-10-16T17:27:04;10.75;;;6.80;;
41139;SDS011;26881;48.784;9.192;2022-10-16T17:32:26;10.13;;;4.82;;
41139;SDS011;26881;48.784;9.192;2022-10-16T17:37:50;12.48;;;2.97;;
41139;SDS011;26881;48.784;9.192;2022-10-16T17:43:12;5.60;;;3.33;;
41139;SDS011;26881;48.784;9.192;2022-10-16T17:48:38;9.70;;;3.65;;
41139;SDS011;26881;48.784;9.192;2022-10-16T17:54:00;8.60;;;3.17;;
41139;SDS011;26881;48.784;9.192;2022-10-16T17:59:23;8.73;;;3.30;;
41139;SDS011;26881;48.784;9.192;2022-10-16T18:04:45;8.68;;;3.35;;
41139;SDS011;26881;48.784;9.192;2022-10-16T18:10:07;7.88;;;3.22;;
41139;SDS011;26881;48.784;9.192;2022-10-16T18:15:32;10.57;;;3.42;;
41139;SDS011;26881;48.784;9.192;2022-10-16T18:20:58;8.57;;;2.97;;
41139;SDS011;26881;48.784;9.192;2022-10-16T18:26:21;5.75;;;3.13;;
41139;SDS011;26881;48.784;9.192;2022-10-16T18:31:43;6.03;;;2.78;;
41139;SDS011;26881;48.784;9.192;2022-10-16T18:37:05;7.95;;;2.97;;
41139;SDS011;26881;48.784;9.192;2022-10-16T18:42:27;6.35;;;3.13;;
41139;SDS011;26881;48.784;9.192;2022-10-16T18:47:49;12.25;;;3.55;;
41139;SDS011;26881;48.784;9.192;2022-10-16T18:53:10;5.60;;;2.72;;
41139;SDS011;26881;48.784;9.192;2022-10-16T18:58:35;8.38;;;2.90;;
41139;SDS011;26881;48.784;9.192;2022-10-16T19:03:59;6.00;;;3.50;;
41139;SDS011;26881;48.784;9.192;2022-10-16T19:09:32;9.02;;;4.00;;
41139;SDS011;26881;48.784;9.192;2022-10-16T19:14:53;12.13;;;4.75;;
41139;SDS011;26881;48.784;9.192;2022-10-16T19:20:15;10.93;;;5.10;;
41139;SDS011;26881;48.784;9.192;2022-10-16T19:25:37;9.13;;;4.63;;
41139;SDS011;26881;48.784;9.192;2022-10-16T19:31:00;9.60;;;3.80;;
41139;SDS011;26881;48.784;9.192;2022-10-16T19:36:25;7.80;;;4.28;;
41139;SDS011;26881;48.784;9.192;2022-10-16T19:41:48;9.93;;;4.63;;
41139;SDS011;26881;48.784;9.192;2022-10-16T19:47:10;6.28;;;3.78;;
41139;SDS011;26881;48.784;9.192;2022-10-16T19:52:32;9.57;;;3.97;;
41139;SDS011;26881;48.784;9.192;2022-10-16T19:57:53;13.93;;;4.13;;
41139;SDS011;26881;48.784;9.192;2022-10-16T20:03:15;7.40;;;4.00;;
41139;SDS011;26881;48.784;9.192;2022-10-16T20:08:38;9.45;;;3.83;;
41139;SDS011;26881;48.784;9.192;2022-10-16T20:14:01;8.48;;;3.83;;
41139;SDS011;26881;48.784;9.192;2022-10-16T20:19:24;6.35;;;3.58;;
41139;SDS011;26881;48.784;9.192;2022-10-16T20:24:46;6.68;;;3.60;;
41139;SDS011;26881;48.784;9.192;2022-10-16T20:30:08;6.68;;;3.15;;
41139;SDS011;26881;48.784;9.192;2022-10-16T20:35:34;9.43;;;3.70;;
41139;SDS011;26881;48.784;9.192;2022-10-16T20:41:01;14.30;;;4.18;;
41139;SDS011;26881;48.784;9.192;2022-10-16T20:46:25;13.57;;;4.43;;
41139;SDS011;26881;48.784;9.192;2022-10-16T20:51:48;7.68;;;3.50;;
41139;SDS011;26881;48.784;9.192;2022-10-16T20:57:10;5.30;;;2.75;;
41139;SDS011;26881;48.784;9.192;2022-10-16T21:02:32;8.82;;;3.33;;
41139;SDS011;26881;48.784;9.192;2022-10-16T21:07:54;8.75;;;2.80;;
41139;SDS011;26881;48.784;9.192;2022-10-16T21:13:16;4.45;;;2.75;;
41139;SDS011;26881;48.784;9.192;2022-10-16T21:18:38;3.97;;;2.85;;
41139;SDS011;26881;48.784;9.192;2022-10-16T21:24:05;10.73;;;2.78;;
41139;SDS011;26881;48.784;9.192;2022-10-16T21:29:34;6.30;;;2.50;;
41139;SDS011;26881;48.784;9.192;2022-10-16T21:34:56;4.45;;;2.85;;
41139;SDS011;26881;48.784;9.192;2022-10-16T21:40:17;6.88;;;2.67;;
41139;SDS011;26881;48.784;9.192;2022-10-16T21:45:39;4.57;;;2.30;;
41139;SDS011;26881;48.784;9.192;2022-10-16T21:51:01;8.35;;;2.28;;
41139;SDS011;26881;48.784;9.192;2022-10-16T21:56:23;4.97;;;3.70;;
41139;SDS011;26881;48.784;9.192;2022-10-16T22:01:44;4.50;;;2.78;;
41139;SDS011;26881;48.784;9.192;2022-10-16T22:07:06;3.42;;;2.30;;
41139;SDS011;26881;48.784;9.192;2022-10-16T22:12:28;8.23;;;2.67;;
41139;SDS011;26881;48.784;9.192;2022-10-16T22:17:50;8.60;;;2.88;;
41139;SDS011;26881;48.784;9.192;2022-10-16T22:23:12;6.78;;;3.15;;
41139;SDS011;26881;48.784;9.192;2022-10-16T22:28:33;8.57;;;3.17;;
41139;SDS011;26881;48.784;9.192;2022-10-16T22:33:56;6.88;;;3.30;;
41139;SDS011;26881;48.784;9.192;2022-10-16T22:39:21;5.22;;;3.45;;
41139;SDS011;26881;48.784;9.192;2022-10-16T22:44:42;8.65;;;3.60;;
41139;SDS011;26881;48.784;9.192;2022-10-16T22:50:04;6.50;;;3.35;;
41139;SDS011;26881;48.784;9.192;2022-10-16T22:55:26;7.78;;;3.60;;
41139;SDS011;26881;48.784;9.192;2022-10-16T23:00:48;9.45;;;3.63;;
41139;SDS011;26881;48.784;9.192;2022-10-16T23:06:10;9.82;;;4.50;;
41139;SDS011;26881;48.784;9.192;2022-10-16T23:11:32;7.32;;;5.00;;
41139;SDS011;26881;48.784;9.192;2022-10-16T23:16:54;7.53;;;3.97;;
41139;SDS011;26881;48.784;9.192;2022-10-16T23:22:16;5.43;;;2.80;;
41139;SDS011;26881;48.784;9.192;2022-10-16T23:27:38;6.75;;;2.80;;
41139;SDS011;26881;48.784;9.192;2022-10-16T23:32:59;8.27;;;2.90;;
41139;SDS011;26881;48.784;9.192;2022-10-16T23:38:21;10.43;;;3.15;;
41139;SDS011;26881;48.784;9.192;2022-10-16T23:43:43;8.90;;;3.92;;
41139;SDS011;26881;48.784;9.192;2022-10-16T23:49:05;4.50;;;3.70;;
41139;SDS011;26881;48.784;9.192;2022-10-16T23:54:26;10.70;;;3.30;;
41139;SDS011;26881;48.784;9.192;2022-10-16T23:59:48;6.80;;;2.53;;
